Time;durP1;ratioP1;P1;durP2;ratioP2;P2;SDS_P1;SDS_P2;PMS_P1;PMS_P2;Temp;Humidity;BMP_temperature;BMP_pressure;BME280_temperature;BME280_humidity;BME280_pressure;Samples;Min_cycle;Max_cycle;Signal;HPM_P1;HPM_P2
2023/05/28 00:01:06;;;;;;;11.43;10.17;;;;;;;18.23;100.00;-17609.44;6243932;23;20163;-62
2023/05/28 00:03:35;;;;;;;10.70;10.07;;;;;;;18.25;100.00;-17931.50;6243819;23;20188;-62
2023/05/28 00:06:02;;;;;;;11.67;10.73;;;;;;;18.14;100.00;-18250.56;6243853;23;20196;-62
2023/05/28 00:08:29;;;;;;;11.23;10.63;;;;;;;18.13;100.00;-17607.03;6244179;23;20489;-62
2023/05/28 00:10:59;;;;;;;12.67;10.67;;;;;;;18.18;100.00;-17608.16;6244000;23;20161;-63
2023/05/28 00:13:27;;;;;;;12.47;10.13;;;;;;;18.16;100.00;-17929.38;6244211;23;20499;-63
2023/05/28 00:15:54;;;;;;;11.57;10.53;;;;;;;18.10;100.00;-18251.47;6243805;23;20153;-63
2023/05/28 00:18:21;;;;;;;11.87;10.60;;;;;;;18.10;100.00;-18251.47;6244048;23;20600;-63
2023/05/28 00:20:49;;;;;;;11.33;10.33;;;;;;;18.10;100.00;-18251.47;6244190;23;20157;-63
2023/05/28 00:23:16;;;;;;;10.83;10.03;;;;;;;17.97;100.00;-18246.50;6243866;23;20163;-62
2023/05/28 00:25:43;;;;;;;11.13;9.90;;;;;;;17.91;100.00;-17923.53;6243794;23;20160;-62
2023/05/28 00:28:11;;;;;;;11.53;9.90;;;;;;;17.79;100.00;-18242.41;6244222;23;20159;-63
2023/05/28 00:30:38;;;;;;;10.43;9.57;;;;;;;17.88;100.00;-18246.34;6244187;23;20492;-63
2023/05/28 00:33:06;;;;;;;12.60;10.00;;;;;;;17.91;100.00;-18245.16;6243792;23;20240;-62
2023/05/28 00:35:33;;;;;;;10.70;9.70;;;;;;;17.84;100.00;-17922.03;6217462;23;20536;-62
2023/05/28 00:38:00;;;;;;;9.37;8.60;;;;;;;17.80;100.00;-18242.53;6244096;23;20157;-63
2023/05/28 00:40:27;;;;;;;11.37;9.63;;;;;;;17.68;100.00;-18241.56;6245735;23;20153;-63
2023/05/28 00:42:54;;;;;;;11.83;9.30;;;;;;;17.71;100.00;-18242.38;6245597;23;20212;-63
2023/05/28 00:45:22;;;;;;;10.43;9.43;;;;;;;17.59;100.00;-18237.63;6245829;23;20153;-62
2023/05/28 00:47:50;;;;;;;14.60;9.63;;;;;;;17.71;100.00;-18240.38;6246043;23;20161;-62
2023/05/28 00:50:17;;;;;;;11.63;8.87;;;;;;;17.71;100.00;-18240.38;6246058;23;20592;-63
2023/05/28 00:52:47;;;;;;;10.77;9.57;;;;;;;17.67;100.00;-18239.56;6245484;23;20173;-62
2023/05/28 00:55:16;;;;;;;9.77;9.07;;;;;;;17.63;100.00;-18238.59;6245531;23;20181;-63
2023/05/28 00:57:47;;;;;;;10.07;9.00;;;;;;;17.63;100.00;-18238.59;6245974;23;20207;-61
2023/05/28 01:00:15;;;;;;;10.13;9.17;;;;;;;17.73;100.00;-17919.44;6245901;23;20615;-62
2023/05/28 01:02:44;;;;;;;10.70;9.10;;;;;;;17.78;100.00;-17599.13;6245615;23;20188;-62
2023/05/28 01:05:11;;;;;;;10.07;9.13;;;;;;;17.85;100.00;-17600.63;6245937;23;20488;-62
2023/05/28 01:07:38;;;;;;;12.70;9.10;;;;;;;17.89;100.00;-14706.28;6245718;23;20551;-62
2023/05/28 01:10:07;;;;;;;10.07;9.07;;;;;;;17.88;100.00;-14062.34;6245453;23;20164;-62
2023/05/28 01:12:36;;;;;;;9.20;8.10;;;;;;;17.96;100.00;-14063.72;6245787;23;20272;-62
2023/05/28 01:15:03;;;;;;;9.73;8.93;;;;;;;18.03;100.00;-13743.03;6245237;23;20279;-62
2023/05/28 01:17:31;;;;;;;10.07;9.17;;;;;;;18.05;100.00;-13421.31;6245295;23;20161;-63
2023/05/28 01:20:10;;;;;;;9.70;9.10;;;;;;;18.02;100.00;-13420.84;6245681;23;20504;-62
2023/05/28 01:22:39;;;;;;;9.87;8.93;;;;;;;18.17;100.00;-13423.19;6245367;23;20165;-62
2023/05/28 01:25:12;;;;;;;10.60;9.73;;;;;;;18.23;100.00;-13102.00;6245744;23;20157;-62
2023/05/28 01:27:40;;;;;;;10.03;9.03;;;;;;;18.23;100.00;-12779.81;6245140;23;20161;-62
2023/05/28 01:30:09;;;;;;;9.17;8.67;;;;;;;18.32;100.00;-12781.09;6245190;23;20219;-62
2023/05/28 01:32:37;;;;;;;9.77;8.97;;;;;;;18.34;100.00;-12136.88;6245184;23;20268;-63
2023/05/28 01:35:04;;;;;;;9.20;8.47;;;;;;;18.42;100.00;-11815.63;6245607;23;20237;-62
2023/05/28 01:37:34;;;;;;;9.50;9.00;;;;;;;18.30;100.00;-11491.56;6245094;23;20163;-62
2023/05/28 01:40:03;;;;;;;9.83;9.07;;;;;;;18.46;100.00;-12138.50;6245535;23;20235;-62
2023/05/28 01:42:34;;;;;;;9.87;8.93;;;;;;;18.49;100.00;-12461.31;6244863;23;20200;-63
2023/05/28 01:45:02;;;;;;;14.10;9.63;;;;;;;18.38;100.00;-12782.00;6218546;23;20153;-62
2023/05/28 01:47:30;;;;;;;9.27;8.87;;;;;;;18.47;100.00;-12461.06;6245390;23;20157;-63
2023/05/28 01:49:57;;;;;;;10.07;9.13;;;;;;;18.50;100.00;-13106.13;6245005;23;20227;-62
2023/05/28 01:52:24;;;;;;;14.03;9.10;;;;;;;18.52;100.00;-12461.81;6245045;23;20163;-63
2023/05/28 01:54:51;;;;;;;10.17;9.20;;;;;;;18.48;100.00;-13750.44;6245130;23;20595;-62
2023/05/28 01:57:18;;;;;;;10.03;9.17;;;;;;;18.47;100.00;-13750.19;6245362;23;20193;-63
2023/05/28 01:59:47;;;;;;;9.80;9.17;;;;;;;18.48;100.00;-13750.44;6245002;23;20157;-63
2023/05/28 02:02:13;;;;;;;10.10;9.10;;;;;;;18.54;100.00;-13751.38;6245465;23;20618;-61
2023/05/28 02:04:41;;;;;;;10.53;9.63;;;;;;;18.54;100.00;-13429.16;6244848;23;20157;-63
2023/05/28 02:07:07;;;;;;;11.07;9.90;;;;;;;18.59;100.00;-13429.97;6245339;23;20157;-61
2023/05/28 02:09:34;;;;;;;11.50;10.17;;;;;;;18.51;100.00;-14073.19;6245295;23;20611;-62
2023/05/28 02:12:02;;;;;;;11.20;10.20;;;;;;;18.50;100.00;-13750.69;6244844;23;20164;-62
2023/05/28 02:14:30;;;;;;;11.17;10.20;;;;;;;18.59;100.00;-13429.88;6245122;23;20580;-62
2023/05/28 02:16:58;;;;;;;10.70;9.80;;;;;;;18.55;100.00;-13751.63;6244770;23;20157;-62
2023/05/28 02:19:25;;;;;;;19.07;10.87;;;;;;;18.47;100.00;-13750.19;6245354;23;20580;-61
2023/05/28 02:21:53;;;;;;;11.73;10.53;;;;;;;18.54;100.00;-14395.94;6244727;23;20225;-61
2023/05/28 02:24:20;;;;;;;12.10;10.30;;;;;;;18.52;100.00;-14395.56;6244704;23;20576;-62
2023/05/28 02:26:47;;;;;;;11.10;10.40;;;;;;;18.63;100.00;-14075.16;6245071;23;20164;-62
2023/05/28 02:29:14;;;;;;;11.33;10.20;;;;;;;18.57;100.00;-14074.13;6245136;23;20183;-63
2023/05/28 02:31:41;;;;;;;10.93;10.33;;;;;;;18.32;100.00;-14392.03;6245166;23;20596;-63
2023/05/28 02:34:10;;;;;;;12.67;10.90;;;;;;;18.48;100.00;-15683.22;6244700;23;20196;-62
2023/05/28 02:36:37;;;;;;;12.17;10.87;;;;;;;18.38;100.00;-16647.19;6245045;23;20161;-62
2023/05/28 02:39:04;;;;;;;10.83;10.33;;;;;;;18.41;100.00;-17613.44;6245010;23;20231;-62
2023/05/28 02:41:31;;;;;;;10.97;10.23;;;;;;;18.30;100.00;-18254.25;6244505;23;20571;-62
2023/05/28 02:43:58;;;;;;;10.67;9.97;;;;;;;18.14;100.00;-18252.44;6244398;23;20204;-62
2023/05/28 02:46:25;;;;;;;13.93;10.67;;;;;;;18.27;100.00;-18255.66;6244952;23;20185;-62
2023/05/28 02:48:52;;;;;;;12.23;10.13;;;;;;;18.37;100.00;-18257.94;6244819;23;20633;-63
2023/05/28 02:51:20;;;;;;;10.43;9.90;;;;;;;18.10;100.00;-18251.47;6244852;23;20164;-62
2023/05/28 02:53:47;;;;;;;11.53;10.43;;;;;;;18.41;100.00;-18257.00;6244642;23;20167;-63
2023/05/28 02:56:14;;;;;;;11.43;10.40;;;;;;;18.39;100.00;-18256.41;6244828;23;20639;-62
2023/05/28 02:58:41;;;;;;;13.90;10.90;;;;;;;18.60;100.00;-17939.56;6244385;23;20195;-61
2023/05/28 03:01:07;;;;;;;10.60;9.80;;;;;;;18.57;100.00;-16973.22;6244617;23;20179;-61
2023/05/28 03:03:34;;;;;;;10.70;10.10;;;;;;;18.66;100.00;-16653.16;6244323;23;20157;-62
2023/05/28 03:06:01;;;;;;;11.63;10.83;;;;;;;18.70;100.00;-14720.94;6244339;23;20533;-62
2023/05/28 03:08:29;;;;;;;11.80;10.80;;;;;;;18.59;100.00;-14719.03;6244753;23;20551;-62
2023/05/28 03:10:56;;;;;;;11.80;10.60;;;;;;;18.41;100.00;-16325.91;6244805;23;20160;-62
2023/05/28 03:13:23;;;;;;;11.70;10.73;;;;;;;18.28;100.00;-18255.78;6244251;23;20168;-62
2023/05/28 03:15:50;;;;;;;12.23;11.43;;;;;;;18.19;100.00;-18253.63;6244593;23;20187;-62
2023/05/28 03:18:17;;;;;;;12.17;11.30;;;;;;;18.20;100.00;-18254.00;6244178;23;20163;-62
2023/05/28 03:20:44;;;;;;;12.50;11.60;;;;;;;18.24;100.00;-18254.84;6244098;23;20161;-62
2023/05/28 03:23:10;;;;;;;13.80;11.90;;;;;;;18.19;100.00;-18253.63;6244200;23;20156;-63
2023/05/28 03:25:39;;;;;;;12.37;11.47;;;;;;;18.41;100.00;-18258.91;6244226;23;20159;-62
2023/05/28 03:28:06;;;;;;;12.73;11.83;;;;;;;18.51;100.00;-18261.28;6244256;23;20196;-63
2023/05/28 03:30:32;;;;;;;12.50;11.43;;;;;;;18.58;100.00;-18262.84;6244190;23;20248;-63
2023/05/28 03:32:59;;;;;;;12.10;10.93;;;;;;;18.74;100.00;-18264.78;6244446;23;20473;-62
2023/05/28 03:35:26;;;;;;;11.17;10.10;;;;;;;18.78;100.00;-15689.16;6244066;23;20176;-62
2023/05/28 03:37:53;;;;;;;11.50;10.57;;;;;;;18.99;100.00;-14081.25;6244531;23;20157;-63
2023/05/28 03:40:20;;;;;;;11.13;10.03;;;;;;;18.90;100.00;-9239.78;6244026;23;20165;-62
2023/05/28 03:42:48;;;;;;;10.03;9.17;;;;;;;19.01;100.00;-8917.84;6244030;23;20210;-62
2023/05/28 03:45:16;;;;;;;13.27;9.03;;;;;;;19.03;100.00;-7302.63;6244495;23;20153;-63
2023/05/28 03:47:43;;;;;;;10.60;8.77;;;;;;;19.12;100.00;-4393.03;6244378;23;20496;-63
2023/05/28 03:50:11;;;;;;;9.53;8.87;;;;;;;19.07;100.00;-3098.81;6244387;23;20184;-62
2023/05/28 03:52:37;;;;;;;9.07;8.17;;;;;;;19.14;100.00;-2451.44;6244408;23;20463;-62
2023/05/28 03:55:05;;;;;;;9.63;8.80;;;;;;;19.26;100.00;-2127.47;6243918;23;20220;-62
2023/05/28 03:57:33;;;;;;;9.43;8.60;;;;;;;19.07;100.00;2731.13;6243970;23;20157;-62
2023/05/28 04:00:03;;;;;;;9.30;8.30;;;;;;;19.10;100.00;2731.44;6244391;23;20596;-62
2023/05/28 04:02:30;;;;;;;8.83;8.23;;;;;;;18.95;100.00;2729.94;6243879;23;20218;-62
2023/05/28 04:04:57;;;;;;;8.80;8.20;;;;;;;18.91;100.00;3702.00;6243969;23;20157;-62
2023/05/28 04:07:24;;;;;;;8.80;7.63;;;;;;;18.95;100.00;2729.94;6244344;23;20162;-61
2023/05/28 04:09:51;;;;;;;8.23;7.73;;;;;;;18.77;100.00;2728.19;6243885;23;20157;-62
2023/05/28 04:12:18;;;;;;;7.93;7.43;;;;;;;18.77;100.00;1108.50;6244249;23;20527;-61
2023/05/28 04:14:44;;;;;;;8.20;7.50;;;;;;;18.75;100.00;136.97;6246734;23;20487;-63
2023/05/28 04:17:13;;;;;;;8.47;7.67;;;;;;;18.78;100.00;1108.53;6246368;23;20490;-62
2023/05/28 04:19:40;;;;;;;8.00;7.37;;;;;;;18.60;100.00;459.81;6246420;23;20603;-62
2023/05/28 04:22:07;;;;;;;8.90;8.00;;;;;;;18.83;100.00;1756.78;6246385;23;20543;-62
2023/05/28 04:24:34;;;;;;;7.73;7.20;;;;;;;18.96;100.00;2405.94;6246009;23;20243;-62
2023/05/28 04:27:01;;;;;;;8.70;7.60;;;;;;;19.01;100.00;4027.41;6246201;23;20153;-62
2023/05/28 04:29:29;;;;;;;8.53;7.47;;;;;;;19.10;100.00;5325.97;6246411;23;20157;-62
2023/05/28 04:31:57;;;;;;;12.37;8.20;;;;;;;19.13;100.00;9222.22;6246296;23;20547;-62
2023/05/28 04:34:26;;;;;;;8.20;7.70;;;;;;;19.15;100.00;8897.91;6246221;23;20710;-64
2023/05/28 04:36:53;;;;;;;11.87;7.57;;;;;;;19.06;100.00;9220.78;6245865;23;20180;-63
2023/05/28 04:39:21;;;;;;;9.90;7.70;;;;;;;19.09;100.00;9871.13;6246369;23;20596;-62
2023/05/28 04:41:48;;;;;;;7.70;7.33;;;;;;;19.18;100.00;10198.00;6245989;23;20557;-62
2023/05/28 04:44:16;;;;;;;8.67;7.77;;;;;;;19.24;100.00;10199.34;6246025;23;20161;-63
2023/05/28 04:46:45;;;;;;;8.30;7.53;;;;;;;19.21;100.00;10198.66;6245814;23;20215;-61
2023/05/28 04:49:12;;;;;;;11.30;8.13;;;;;;;19.14;100.00;8572.88;6245879;23;20161;-63
2023/05/28 04:51:41;;;;;;;9.73;7.10;;;;;;;19.30;100.00;7601.34;6246029;23;20469;-62
2023/05/28 04:54:07;;;;;;;8.37;7.67;;;;;;;19.05;100.00;7272.34;6245925;23;20559;-64
2023/05/28 04:56:34;;;;;;;7.73;6.97;;;;;;;19.23;100.00;7924.94;6246257;23;20489;-63
2023/05/28 04:59:04;;;;;;;8.97;7.33;;;;;;;19.28;100.00;7601.06;6245958;23;20160;-62
2023/05/28 05:01:32;;;;;;;8.70;7.67;;;;;;;19.28;100.00;8900.28;6246328;23;20157;-62
2023/05/28 05:03:59;;;;;;;10.27;7.87;;;;;;;19.20;100.00;7924.28;6246211;23;20588;-63
2023/05/28 05:06:26;;;;;;;8.90;7.07;;;;;;;19.04;100.00;4352.03;6246107;23;20156;-62
2023/05/28 05:08:54;;;;;;;6.97;6.50;;;;;;;19.02;100.00;4027.47;6245449;23;20156;-62
2023/05/28 05:11:21;;;;;;;8.43;7.57;;;;;;;19.12;100.00;5650.72;6245638;23;20487;-63
2023/05/28 05:13:50;;;;;;;8.73;7.33;;;;;;;19.02;100.00;5649.25;6245816;23;20483;-62
2023/05/28 05:16:17;;;;;;;11.93;7.33;;;;;;;19.17;100.00;5976.00;6245492;23;20183;-61
2023/05/28 05:18:44;;;;;;;7.17;6.47;;;;;;;19.25;100.00;7600.44;6245767;23;20180;-62
2023/05/28 05:21:12;;;;;;;8.43;7.27;;;;;;;19.30;100.00;10850.66;6245391;23;20161;-62
2023/05/28 05:23:40;;;;;;;7.43;6.73;;;;;;;19.24;100.00;15077.91;6245881;23;20238;-62
2023/05/28 05:26:09;;;;;;;7.23;6.57;;;;;;;19.31;100.00;17685.16;6245480;23;20161;-62
2023/05/28 05:28:36;;;;;;;6.20;5.87;;;;;;;19.26;100.00;22573.25;6246020;23;20572;-62
2023/05/28 05:31:04;;;;;;;13.33;6.37;;;;;;;19.35;100.00;24535.03;6245881;23;20539;-63
2023/05/28 05:33:30;;;;;;;6.63;6.00;;;;;;;19.47;100.00;27480.75;6219354;23;20488;-62
2023/05/28 05:36:00;;;;;;;6.87;6.30;;;;;;;19.58;100.00;34029.91;6246044;23;20516;-62
2023/05/28 05:38:27;;;;;;;8.37;7.00;;;;;;;19.47;100.00;25520.44;6245317;23;20157;-62
2023/05/28 05:40:54;;;;;;;7.10;6.57;;;;;;;19.56;100.00;19649.72;6245970;23;20596;-62
2023/05/28 05:43:23;;;;;;;8.53;6.70;;;;;;;19.27;100.00;13451.59;6245161;23;20210;-62
2023/05/28 05:45:50;;;;;;;7.43;6.83;;;;;;;19.16;100.00;7598.94;6245798;23;20179;-62
2023/05/28 05:48:17;;;;;;;6.93;6.27;;;;;;;19.16;100.00;7598.94;6245540;23;20605;-62
2023/05/28 05:50:50;;;;;;;7.53;6.77;;;;;;;19.23;100.00;9224.16;6245437;23;20215;-62
2023/05/28 05:53:17;;;;;;;7.33;6.47;;;;;;;19.35;100.00;9226.72;6245248;23;20161;-62
2023/05/28 05:55:44;;;;;;;7.13;6.50;;;;;;;19.21;100.00;10848.69;6245511;23;20181;-64
2023/05/28 05:58:11;;;;;;;7.83;6.90;;;;;;;19.35;100.00;9551.59;6245553;23;20160;-62
2023/05/28 06:00:39;;;;;;;7.73;7.20;;;;;;;19.28;100.00;11175.28;6245462;23;20168;-62
2023/05/28 06:03:07;;;;;;;12.50;7.23;;;;;;;19.34;100.00;9876.41;6245106;23;20164;-62
2023/05/28 06:05:34;;;;;;;8.33;7.47;;;;;;;19.29;100.00;9550.34;6245609;23;20184;-62
2023/05/28 06:08:00;;;;;;;12.97;7.27;;;;;;;19.26;100.00;5652.78;6245262;23;20160;-62
2023/05/28 06:10:27;;;;;;;7.73;7.10;;;;;;;18.94;100.00;2081.75;6245560;23;20511;-63
2023/05/28 06:12:54;;;;;;;12.47;7.30;;;;;;;18.94;100.00;-3098.88;6244975;23;20161;-63
2023/05/28 06:15:22;;;;;;;11.90;6.73;;;;;;;19.07;100.00;-3422.38;6244734;23;20627;-62
2023/05/28 06:17:51;;;;;;;9.13;7.33;;;;;;;19.21;100.00;-2775.03;6245631;23;20157;-63
2023/05/28 06:20:19;;;;;;;8.80;8.03;;;;;;;19.23;100.00;-2775.03;6245009;23;20172;-63
2023/05/28 06:22:46;;;;;;;8.53;7.83;;;;;;;19.24;100.00;-4069.63;6245490;23;20161;-62
2023/05/28 06:25:14;;;;;;;7.07;6.77;;;;;;;19.21;100.00;-1480.00;6245326;23;20591;-61
2023/05/28 06:27:41;;;;;;;7.63;6.90;;;;;;;19.18;100.00;-2775.06;6245192;23;20570;-62
2023/05/28 06:30:10;;;;;;;8.80;8.00;;;;;;;19.24;100.00;-2775.00;6245127;23;20519;-62
2023/05/28 06:32:37;;;;;;;7.63;7.23;;;;;;;19.08;100.00;-2775.19;6244771;23;20172;-62
2023/05/28 06:35:05;;;;;;;8.50;7.67;;;;;;;18.65;100.00;-7946.19;6244739;23;20156;-63
2023/05/28 06:37:32;;;;;;;7.97;7.43;;;;;;;18.95;100.00;-9886.03;6244266;23;20187;-63
2023/05/28 06:39:59;;;;;;;10.27;8.13;;;;;;;18.92;100.00;-11176.88;6244751;23;20157;-62
2023/05/28 06:42:26;;;;;;;7.90;7.33;;;;;;;18.86;100.00;-11821.50;6244742;23;20209;-62
2023/05/28 06:44:53;;;;;;;11.13;8.17;;;;;;;18.84;100.00;-15367.97;6245091;23;20163;-62
2023/05/28 06:47:19;;;;;;;8.70;8.00;;;;;;;18.64;100.00;-16330.56;6244696;23;20160;-62
2023/05/28 06:49:46;;;;;;;11.00;8.60;;;;;;;18.64;100.00;-17296.63;6244978;23;20157;-64
2023/05/28 06:52:15;;;;;;;10.37;9.40;;;;;;;18.58;100.00;-18262.84;6244834;23;20465;-62
2023/05/28 06:54:41;;;;;;;11.60;9.07;;;;;;;18.39;100.00;-18258.41;6218661;23;20196;-63
2023/05/28 06:57:08;;;;;;;12.20;8.57;;;;;;;18.14;100.00;-18252.44;6244720;23;20655;-61
2023/05/28 06:59:35;;;;;;;9.47;8.60;;;;;;;17.99;100.00;-18246.97;6244481;23;20157;-61
2023/05/28 07:02:02;;;;;;;10.53;8.83;;;;;;;17.88;100.00;-18244.47;6244395;23;20164;-61
2023/05/28 07:04:30;;;;;;;10.87;9.43;;;;;;;17.88;100.00;-18246.34;6244431;23;20149;-63
2023/05/28 07:06:56;;;;;;;9.20;8.50;;;;;;;17.79;100.00;-18242.31;6244801;23;20604;-63
2023/05/28 07:09:25;;;;;;;9.53;8.40;;;;;;;17.80;100.00;-17921.19;6244404;23;20161;-61
2023/05/28 07:11:52;;;;;;;8.53;7.93;;;;;;;17.69;100.00;-17918.50;6244338;23;20160;-61
2023/05/28 07:14:19;;;;;;;8.47;8.07;;;;;;;17.60;100.00;-17595.13;6244705;23;20168;-62
2023/05/28 07:16:46;;;;;;;9.20;8.33;;;;;;;17.75;100.00;-17920.03;6244184;23;20187;-62
2023/05/28 07:19:13;;;;;;;8.73;8.10;;;;;;;17.68;100.00;-17918.38;6244354;23;20165;-61
2023/05/28 07:21:39;;;;;;;8.83;8.10;;;;;;;17.72;100.00;-17919.31;6244569;23;20157;-62
2023/05/28 07:24:06;;;;;;;9.50;8.70;;;;;;;17.91;100.00;-17923.66;6244232;23;20157;-62
2023/05/28 07:26:35;;;;;;;9.40;8.70;;;;;;;18.01;100.00;-17282.66;6244117;23;20153;-62
2023/05/28 07:29:02;;;;;;;8.87;8.07;;;;;;;17.95;100.00;-16316.41;6244532;23;20495;-62
2023/05/28 07:31:31;;;;;;;7.90;7.40;;;;;;;17.89;100.00;-16636.72;6244177;23;20294;-62
2023/05/28 07:33:58;;;;;;;8.97;8.27;;;;;;;18.06;100.00;-16962.09;6244156;23;20160;-62
2023/05/28 07:36:25;;;;;;;10.20;8.20;;;;;;;18.06;100.00;-16640.38;6244046;23;20177;-61
2023/05/28 07:38:51;;;;;;;8.47;8.00;;;;;;;18.34;100.00;-16646.34;6244216;23;20167;-63
2023/05/28 07:41:18;;;;;;;7.80;7.27;;;;;;;18.67;100.00;-16331.31;6244620;23;20157;-63
2023/05/28 07:43:48;;;;;;;9.67;7.20;;;;;;;18.79;100.00;-11175.25;6244272;23;20306;-63
2023/05/28 07:46:16;;;;;;;7.87;7.37;;;;;;;18.75;100.00;-15366.34;6244402;23;20153;-62
2023/05/28 07:48:43;;;;;;;8.90;7.20;;;;;;;19.07;100.00;-17950.56;6244019;23;20244;-62
2023/05/28 07:51:11;;;;;;;8.40;7.40;;;;;;;19.08;100.00;-17628.63;6244482;23;20157;-62
2023/05/28 07:53:38;;;;;;;8.60;7.53;;;;;;;18.91;100.00;-13757.44;6244085;23;20161;-62
2023/05/28 07:56:05;;;;;;;8.20;7.43;;;;;;;18.88;100.00;-15046.56;6244600;23;20179;-63
2023/05/28 07:58:32;;;;;;;13.17;8.13;;;;;;;18.83;100.00;-15045.63;6244514;23;20520;-63
2023/05/28 08:01:00;;;;;;;9.50;7.77;;;;;;;18.99;100.00;-16659.97;6244041;23;20161;-62
2023/05/28 08:03:27;;;;;;;9.90;7.70;;;;;;;19.00;100.00;-12791.28;6244319;23;20160;-62
2023/05/28 08:05:54;;;;;;;9.67;7.77;;;;;;;19.08;100.00;-12147.19;6244413;23;20160;-63
2023/05/28 08:08:21;;;;;;;9.67;7.50;;;;;;;19.27;100.00;-13440.75;6244021;23;20168;-63
2023/05/28 08:10:48;;;;;;;7.57;7.03;;;;;;;19.51;100.00;-7629.00;6244077;23;20153;-63
2023/05/28 08:13:15;;;;;;;7.83;7.23;;;;;;;19.61;100.00;-6012.13;6244091;23;20157;-62
2023/05/28 08:15:42;;;;;;;7.70;7.13;;;;;;;19.65;100.00;-2774.56;6243982;23;20167;-63
2023/05/28 08:18:10;;;;;;;9.23;7.80;;;;;;;19.85;100.00;-2774.34;6244317;23;20594;-63
2023/05/28 08:20:37;;;;;;;7.93;7.23;;;;;;;19.86;100.00;-2126.22;6243932;23;20161;-62
2023/05/28 08:23:04;;;;;;;7.23;6.73;;;;;;;19.55;100.00;-182.63;6244519;23;20469;-62
2023/05/28 08:25:31;;;;;;;10.57;7.77;;;;;;;19.46;100.00;-2127.06;6244307;23;20157;-62
2023/05/28 08:27:58;;;;;;;10.40;7.10;;;;;;;19.55;100.00;-4069.94;6244119;23;20153;-63
2023/05/28 08:30:25;;;;;;;10.40;7.40;;;;;;;19.52;100.00;-5688.16;6244225;23;20251;-63
2023/05/28 08:32:52;;;;;;;9.30;7.23;;;;;;;19.50;100.00;-1155.06;6243879;23;20219;-62
2023/05/28 08:35:20;;;;;;;7.73;7.10;;;;;;;19.35;100.00;-4069.72;6243800;23;20163;-61
2023/05/28 08:37:51;;;;;;;7.93;6.83;;;;;;;19.24;100.00;-9889.00;6243754;23;20176;-63
2023/05/28 08:40:18;;;;;;;10.87;6.70;;;;;;;19.09;100.00;-11179.00;6218147;23;20283;-63
2023/05/28 08:42:45;;;;;;;8.37;7.03;;;;;;;19.15;100.00;-11825.34;6243964;23;20204;-62
2023/05/28 08:45:12;;;;;;;10.13;7.10;;;;;;;19.20;100.00;-13116.97;6244205;23;20175;-62
2023/05/28 08:47:40;;;;;;;8.30;7.43;;;;;;;19.25;100.00;-11503.78;6243675;23;20153;-62
2023/05/28 08:50:08;;;;;;;20.83;7.57;;;;;;;19.40;100.00;-10536.84;6243792;23;20168;-63
2023/05/28 08:52:37;;;;;;;11.50;7.30;;;;;;;19.18;100.00;-12148.53;6244273;23;20437;-62
2023/05/28 08:55:05;;;;;;;7.57;6.90;;;;;;;18.93;100.00;-13112.84;6243860;23;20192;-62
2023/05/28 08:57:33;;;;;;;7.23;6.77;;;;;;;18.72;100.00;-13431.97;6243794;23;20185;-62
2023/05/28 09:00:00;;;;;;;8.27;7.50;;;;;;;18.80;100.00;-15367.22;6244831;23;20192;-63
2023/05/28 09:02:28;;;;;;;8.20;6.73;;;;;;;18.73;100.00;-17298.63;6245546;23;20175;-61
2023/05/28 09:04:56;;;;;;;8.10;7.70;;;;;;;18.80;100.00;-18267.97;6246023;23;20163;-62
2023/05/28 09:07:23;;;;;;;9.27;8.43;;;;;;;18.91;100.00;-18270.59;6246025;23;20157;-63
2023/05/28 09:09:52;;;;;;;8.63;7.80;;;;;;;18.93;100.00;-16658.81;6245969;23;20481;-63
2023/05/28 09:12:22;;;;;;;8.87;7.43;;;;;;;19.09;100.00;-13760.44;6245626;23;20168;-62
2023/05/28 09:14:51;;;;;;;10.00;7.87;;;;;;;19.14;100.00;-10533.94;6245622;23;20168;-63
2023/05/28 09:17:18;;;;;;;15.43;7.20;;;;;;;19.29;100.00;-6657.59;6245372;23;20187;-62
2023/05/28 09:19:52;;;;;;;17.07;7.67;;;;;;;19.37;100.00;-2451.06;6245966;23;20163;-62
2023/05/28 09:22:19;;;;;;;12.10;7.50;;;;;;;19.59;100.00;-1478.78;6245775;23;20231;-61
2023/05/28 09:24:49;;;;;;;10.17;7.17;;;;;;;19.72;100.00;6309.06;6218843;23;20168;-62
2023/05/28 09:27:19;;;;;;;9.77;6.90;;;;;;;19.86;100.00;17377.75;6245560;23;20154;-63
2023/05/28 09:29:46;;;;;;;8.87;7.27;;;;;;;20.11;100.00;16081.66;6245982;23;20156;-62
2023/05/28 09:32:19;;;;;;;10.77;6.70;;;;;;;20.21;100.00;35051.25;6245728;23;20161;-63
2023/05/28 09:34:47;;;;;;;8.43;7.67;;;;;;;20.31;100.00;36369.75;6245799;23;20239;-64
2023/05/28 09:37:16;;;;;;;8.20;7.40;;;;;;;20.43;100.00;32114.06;6245790;23;20535;-63
2023/05/28 09:39:43;;;;;;;10.30;7.47;;;;;;;20.68;100.00;50541.22;6245347;23;20161;-61
2023/05/28 09:42:11;;;;;;;7.40;6.77;;;;;;;21.09;100.00;84729.69;6245482;23;20710;-63
2023/05/28 09:44:42;;;;;;;7.00;6.40;;;;;;;21.31;100.00;122972.94;6245691;23;20503;-62
2023/05/28 09:47:16;;;;;;;8.50;6.93;;;;;;;21.39;100.00;112556.56;6245592;23;20584;-63
2023/05/28 09:49:44;;;;;;;12.57;7.03;;;;;;;21.48;100.00;151436.75;6245397;23;20167;-62
2023/05/28 09:52:19;;;;;;;12.52;7.10;;;;;;;21.78;100.00;151513.22;6245325;23;20214;-62
2023/05/28 09:54:49;;;;;;;7.07;6.45;;;;;;;21.85;100.00;151531.09;6219008;23;20247;-62
2023/05/28 09:57:20;;;;;;;7.15;6.18;;;;;;;21.92;100.00;151549.00;6245065;23;20180;-62
2023/05/28 09:59:55;;;;;;;12.68;6.85;;;;;;;21.84;100.00;151529.81;6245354;23;20165;-63
2023/05/28 10:02:28;;;;;;;6.78;6.30;;;;;;;21.79;100.00;151515.78;6245504;23;20187;-62
2023/05/28 10:04:58;;;;;;;11.13;7.67;;;;;;;21.93;100.00;151550.28;6245152;23;20175;-63
2023/05/28 10:07:27;;;;;;;8.02;7.20;;;;;;;21.65;100.00;151481.38;6245470;23;20153;-63
2023/05/28 10:09:57;;;;;;;11.38;7.88;;;;;;;21.50;100.00;151443.16;6245382;23;20249;-62
2023/05/28 10:12:29;;;;;;;8.67;7.73;;;;;;;21.21;100.00;151370.53;6245370;23;20639;-62
2023/05/28 10:14:57;;;;;;;11.60;7.63;;;;;;;20.88;100.00;151287.63;6245602;23;20248;-62
2023/05/28 10:17:25;;;;;;;8.73;7.90;;;;;;;21.16;100.00;137123.25;6245071;23;20180;-63
2023/05/28 10:19:52;;;;;;;9.57;7.97;;;;;;;21.18;100.00;151361.56;6245045;23;20195;-63
2023/05/28 10:22:19;;;;;;;8.70;7.90;;;;;;;21.05;100.00;151329.66;6245154;23;20236;-62
2023/05/28 10:24:48;;;;;;;14.77;7.77;;;;;;;21.17;100.00;151360.34;6244886;23;20171;-63
2023/05/28 10:27:15;;;;;;;10.20;7.80;;;;;;;21.08;100.00;151336.06;6245507;23;20153;-62
2023/05/28 10:29:43;;;;;;;8.60;7.70;;;;;;;21.16;100.00;151357.78;6245369;23;20160;-62
2023/05/28 10:32:15;;;;;;;12.57;7.77;;;;;;;21.17;100.00;151360.34;6245095;23;20153;-62
2023/05/28 10:34:42;;;;;;;8.47;7.67;;;;;;;21.27;100.00;151385.78;6244878;23;20161;-63
2023/05/28 10:37:12;;;;;;;7.80;7.30;;;;;;;21.41;100.00;151421.50;6244777;23;20181;-63
2023/05/28 10:39:40;;;;;;;9.53;7.53;;;;;;;21.65;100.00;151481.38;6244825;23;20165;-63
2023/05/28 10:42:08;;;;;;;7.43;6.80;;;;;;;21.56;100.00;151457.13;6244816;23;20280;-62
2023/05/28 10:44:50;;;;;;;10.90;7.73;;;;;;;21.47;100.00;151435.53;6244881;23;20161;-63
2023/05/28 10:47:19;;;;;;;7.57;6.83;;;;;;;21.16;100.00;151356.50;6240632;23;20173;-63
2023/05/28 10:49:59;;;;;;;7.40;6.70;;;;;;;21.70;100.00;151492.84;6244758;23;20172;-63
2023/05/28 10:52:26;;;;;;;7.75;7.05;;;;;;;22.03;100.00;151577.00;6245316;23;20179;-62
2023/05/28 10:54:54;;;;;;;10.98;7.13;;;;;;;22.09;100.00;151591.06;6244995;23;20161;-63
2023/05/28 10:57:22;;;;;;;10.35;7.05;;;;;;;22.31;100.00;151647.16;6245084;23;20604;-62
2023/05/28 10:59:51;;;;;;;7.50;6.72;;;;;;;22.22;100.00;151625.50;6244922;23;20658;-62
2023/05/28 11:02:23;;;;;;;10.67;7.33;;;;;;;22.06;100.00;151583.41;6245008;23;20477;-62
2023/05/28 11:04:55;;;;;;;7.50;6.93;;;;;;;21.78;100.00;151513.22;6244845;23;20179;-63
2023/05/28 11:07:23;;;;;;;8.98;7.47;;;;;;;21.72;100.00;151499.25;6244608;23;20161;-63
2023/05/28 11:09:51;;;;;;;10.00;7.57;;;;;;;21.71;100.00;151495.41;6244700;23;20243;-63
2023/05/28 11:12:20;;;;;;;12.00;7.40;;;;;;;21.69;100.00;151490.28;6244535;23;20200;-62
2023/05/28 11:14:48;;;;;;;8.30;7.50;;;;;;;21.53;100.00;151449.50;6244930;23;20167;-64
2023/05/28 11:17:15;;;;;;;9.63;7.20;;;;;;;21.37;100.00;151411.28;6244631;23;20218;-63
2023/05/28 11:19:45;;;;;;;8.70;7.63;;;;;;;21.50;100.00;151443.16;6244323;23;20161;-63